createdAt,value
2022-10-02T00:03:39.140Z,10.29
2022-10-02T00:08:43.379Z,10.32
2022-10-02T00:13:48.769Z,10.35
2022-10-02T00:18:55.499Z,10.38
2022-10-02T00:24:00.981Z,10.40
2022-10-02T00:29:20.144Z,10.42
2022-10-02T00:34:54.409Z,10.45
2022-10-02T00:40:26.057Z,10.46
2022-10-02T00:45:45.813Z,10.48
2022-10-02T00:50:54.767Z,10.49
2022-10-02T00:55:58.110Z,10.51
2022-10-02T01:01:37.766Z,10.52
2022-10-02T01:06:41.757Z,10.54
2022-10-02T01:11:45.626Z,10.57
2022-10-02T01:16:49.075Z,10.58
2022-10-02T01:22:03.419Z,10.60
2022-10-02T01:27:06.955Z,10.62
2022-10-02T01:32:10.579Z,10.63
2022-10-02T01:37:14.050Z,10.65
2022-10-02T01:42:17.988Z,10.68
2022-10-02T01:47:43.948Z,10.69
2022-10-02T01:53:14.047Z,10.71
2022-10-02T01:58:26.773Z,10.72
2022-10-02T02:03:59.324Z,10.74
2022-10-02T02:09:32.059Z,10.76
2022-10-02T02:14:41.749Z,10.77
2022-10-02T02:20:03.613Z,10.77
2022-10-02T02:25:13.068Z,10.77
2022-10-02T02:30:17.483Z,10.77
2022-10-02T02:35:27.348Z,10.77
2022-10-02T02:40:33.918Z,10.77
2022-10-02T02:45:42.965Z,10.77
2022-10-02T02:50:59.668Z,10.77
2022-10-02T02:56:08.639Z,10.77
2022-10-02T03:01:12.325Z,10.78
2022-10-02T03:06:15.868Z,10.78
2022-10-02T03:11:56.431Z,10.79
2022-10-02T03:17:20.067Z,10.79
2022-10-02T03:22:25.743Z,10.78
2022-10-02T03:27:42.266Z,10.79
2022-10-02T03:32:46.876Z,10.80
2022-10-02T03:37:54.381Z,10.81
2022-10-02T03:42:58.922Z,10.81
2022-10-02T03:48:02.130Z,10.82
2022-10-02T03:53:15.779Z,10.83
2022-10-02T03:58:19.376Z,10.84
2022-10-02T04:03:37.153Z,10.85
2022-10-02T04:09:05.019Z,10.85
2022-10-02T04:14:15.243Z,10.83
2022-10-02T04:19:29.821Z,10.82
2022-10-02T04:24:59.374Z,10.83
2022-10-02T04:30:17.891Z,10.84
2022-10-02T04:35:52.075Z,10.85
2022-10-02T04:41:13.787Z,10.86
2022-10-02T04:46:38.893Z,10.85
2022-10-02T04:51:48.426Z,10.85
2022-10-02T04:57:19.488Z,10.85
2022-10-02T05:02:30.865Z,10.86
2022-10-02T05:07:41.766Z,10.89
2022-10-02T05:12:50.872Z,10.93
2022-10-02T05:18:03.095Z,10.97
2022-10-02T05:23:24.701Z,11.01
2022-10-02T05:28:28.092Z,11.06
2022-10-02T05:33:58.630Z,11.11
2022-10-02T05:39:09.880Z,11.18
2022-10-02T05:44:15.590Z,11.26
2022-10-02T05:49:26.680Z,11.30
2022-10-02T05:55:19.198Z,11.32
2022-10-02T06:00:31.595Z,11.38
2022-10-02T06:05:56.529Z,11.46
2022-10-02T06:11:07.136Z,11.62
2022-10-02T06:16:36.803Z,11.88
2022-10-02T06:22:00.705Z,12.18
2022-10-02T06:27:22.550Z,12.23
2022-10-02T06:32:54.634Z,12.26
2022-10-02T06:38:27.231Z,12.25
2022-10-02T06:43:40.782Z,12.28
2022-10-02T06:48:53.307Z,12.47
2022-10-02T06:54:19.451Z,12.55
2022-10-02T06:59:48.574Z,12.58
2022-10-02T07:05:09.251Z,12.67
2022-10-02T07:10:29.369Z,12.83
2022-10-02T07:15:52.441Z,13.08
2022-10-02T07:21:03.396Z,13.38
2022-10-02T07:26:19.971Z,13.55
2022-10-02T07:31:50.492Z,13.57
2022-10-02T07:37:08.618Z,13.45
2022-10-02T07:42:40.190Z,13.55
2022-10-02T07:48:10.612Z,14.10
2022-10-02T07:53:32.103Z,14.25
2022-10-02T07:58:42.167Z,14.02
2022-10-02T08:03:50.412Z,13.81
2022-10-02T08:09:02.649Z,13.64
2022-10-02T08:14:09.036Z,13.65
2022-10-02T08:19:39.612Z,13.76
2022-10-02T08:24:55.286Z,14.00
2022-10-02T08:30:07.814Z,14.32
2022-10-02T08:35:21.464Z,14.60
2022-10-02T08:40:44.023Z,14.72
2022-10-02T08:46:18.874Z,14.70
2022-10-02T08:51:31.195Z,14.71
2022-10-02T08:56:58.891Z,15.00
2022-10-02T09:02:28.049Z,18.31
2022-10-02T09:07:49.542Z,23.08
2022-10-02T09:13:08.712Z,25.92
2022-10-02T09:18:30.253Z,27.33
2022-10-02T09:24:20.155Z,27.52
2022-10-02T09:29:42.512Z,24.96
2022-10-02T09:35:23.504Z,22.33
2022-10-02T09:40:54.360Z,20.23
2022-10-02T09:46:27.058Z,19.34
2022-10-02T09:52:04.680Z,19.35
2022-10-02T09:57:31.541Z,19.14
2022-10-02T10:02:54.915Z,18.52
2022-10-02T10:08:21.676Z,17.77
2022-10-02T10:13:44.238Z,17.44
2022-10-02T10:19:09.055Z,17.44
2022-10-02T10:24:49.545Z,17.37
2022-10-02T10:30:19.677Z,17.32
2022-10-02T10:35:48.175Z,17.75
2022-10-02T10:41:03.675Z,17.92
2022-10-02T10:46:19.210Z,17.86
2022-10-02T10:51:36.938Z,17.73
2022-10-02T10:56:57.226Z,17.54
2022-10-02T11:02:03.541Z,17.36
2022-10-02T11:07:16.997Z,17.32
2022-10-02T11:12:29.429Z,17.34
2022-10-02T11:17:54.603Z,17.19
2022-10-02T11:23:19.107Z,16.87
2022-10-02T11:28:48.836Z,16.73
2022-10-02T11:34:32.492Z,16.81
2022-10-02T11:40:08.171Z,16.70
2022-10-02T11:45:42.223Z,16.41
2022-10-02T11:51:00.575Z,16.24
2022-10-02T11:56:27.524Z,16.05
2022-10-02T12:02:05.870Z,15.97
2022-10-02T12:07:28.929Z,16.11
2022-10-02T12:13:02.753Z,16.32
2022-10-02T12:18:44.257Z,16.26
2022-10-02T12:24:32.938Z,16.10
2022-10-02T12:29:42.430Z,15.68
2022-10-02T12:35:25.587Z,15.11
2022-10-02T12:40:56.008Z,14.57
2022-10-02T12:46:37.111Z,14.10
2022-10-02T12:51:57.010Z,13.72
2022-10-02T12:57:39.297Z,13.71
2022-10-02T13:03:15.297Z,13.98
2022-10-02T13:08:32.093Z,14.29
2022-10-02T13:13:56.532Z,14.56
2022-10-02T13:19:17.993Z,14.70
2022-10-02T13:24:24.800Z,14.71
2022-10-02T13:29:46.462Z,14.71
2022-10-02T13:35:25.910Z,14.75
2022-10-02T13:41:04.884Z,14.84
2022-10-02T13:46:24.893Z,14.70
2022-10-02T13:51:35.227Z,14.41
2022-10-02T13:56:43.003Z,14.01
2022-10-02T14:02:05.701Z,13.52
2022-10-02T14:07:19.404Z,13.04
2022-10-02T14:12:50.779Z,12.78
2022-10-02T14:18:31.714Z,12.77
2022-10-02T14:24:04.184Z,12.99
2022-10-02T14:29:26.810Z,13.35
2022-10-02T14:34:45.584Z,13.54
2022-10-02T14:39:49.868Z,13.48
2022-10-02T14:44:53.727Z,13.34
2022-10-02T14:49:56.995Z,13.21
2022-10-02T14:55:23.098Z,13.23
2022-10-02T15:00:44.791Z,13.21
2022-10-02T15:06:06.695Z,13.14
2022-10-02T15:11:28.583Z,13.03
2022-10-02T15:17:03.550Z,12.87
2022-10-02T15:22:21.115Z,12.65
2022-10-02T15:28:24.135Z,12.43
2022-10-02T15:33:26.125Z,12.18
2022-10-02T15:38:50.019Z,11.93
2022-10-02T15:44:16.206Z,11.66
2022-10-02T15:49:26.872Z,11.43
2022-10-02T15:54:53.121Z,11.25
2022-10-02T16:00:18.307Z,11.07
2022-10-02T16:05:32.336Z,10.87
2022-10-02T16:10:53.502Z,10.68
2022-10-02T16:16:16.498Z,10.50
2022-10-02T16:21:31.813Z,10.33
2022-10-02T16:27:01.593Z,10.19
2022-10-02T16:32:25.295Z,10.07
2022-10-02T16:37:45.373Z,10.01
2022-10-02T16:42:53.654Z,9.97
2022-10-02T16:48:15.502Z,9.93
2022-10-02T16:53:46.423Z,9.90
2022-10-02T16:59:31.973Z,9.89
2022-10-02T17:05:16.167Z,9.89
2022-10-02T17:10:40.169Z,9.87
2022-10-02T17:15:52.894Z,9.82
2022-10-02T17:21:28.414Z,9.74
2022-10-02T17:26:51.108Z,9.66
2022-10-02T17:31:58.714Z,9.59
2022-10-02T17:37:15.370Z,9.55
2022-10-02T17:42:42.182Z,9.53
2022-10-02T17:47:54.843Z,9.50
2022-10-02T17:53:41.959Z,9.47
2022-10-02T17:58:49.324Z,9.44
2022-10-02T18:04:28.462Z,9.43
2022-10-02T18:09:55.038Z,9.44
2022-10-02T18:15:14.632Z,9.43
2022-10-02T18:20:53.652Z,9.37
2022-10-02T18:26:07.251Z,9.26
2022-10-02T18:31:33.194Z,9.19
2022-10-02T18:37:12.893Z,9.08
2022-10-02T18:42:42.032Z,8.96
2022-10-02T18:48:19.788Z,8.88
2022-10-02T18:53:59.073Z,8.79
2022-10-02T18:59:38.825Z,8.73
2022-10-02T19:05:18.341Z,8.68
2022-10-02T19:10:40.642Z,8.64
2022-10-02T19:15:47.017Z,8.60
2022-10-02T19:21:19.939Z,8.58
2022-10-02T19:26:30.815Z,8.58
2022-10-02T19:31:39.990Z,8.60
2022-10-02T19:36:51.625Z,8.61
2022-10-02T19:41:58.452Z,8.61
2022-10-02T19:47:13.128Z,8.58
2022-10-02T19:52:44.773Z,8.54
2022-10-02T19:57:50.764Z,8.48
2022-10-02T20:02:57.821Z,8.43
2022-10-02T20:08:08.955Z,8.41
2022-10-02T20:13:29.336Z,8.37
2022-10-02T20:18:34.729Z,8.30
2022-10-02T20:23:43.996Z,8.24
2022-10-02T20:29:01.841Z,8.16
2022-10-02T20:34:19.041Z,8.10
2022-10-02T20:39:30.312Z,8.09
2022-10-02T20:44:36.729Z,8.09
2022-10-02T20:49:59.678Z,8.09
2022-10-02T20:55:27.993Z,8.18
2022-10-02T21:01:01.230Z,8.26
2022-10-02T21:06:05.061Z,8.38
2022-10-02T21:11:20.292Z,8.51
2022-10-02T21:16:40.630Z,8.65
2022-10-02T21:22:13.206Z,8.79
2022-10-02T21:27:38.653Z,8.94
2022-10-02T21:33:14.065Z,9.07
2022-10-02T21:38:44.837Z,9.19
2022-10-02T21:44:04.210Z,9.32
2022-10-02T21:49:35.450Z,9.39
2022-10-02T21:55:10.261Z,9.45
2022-10-02T22:00:31.801Z,9.51
2022-10-02T22:06:14.175Z,9.58
2022-10-02T22:12:00.014Z,9.64
2022-10-02T22:17:23.873Z,9.64
2022-10-02T22:22:44.591Z,9.63
2022-10-02T22:28:03.664Z,9.63
2022-10-02T22:33:38.611Z,9.63
2022-10-02T22:38:51.502Z,9.63
2022-10-02T22:44:01.348Z,9.65
2022-10-02T22:49:50.754Z,9.70
2022-10-02T22:55:04.946Z,9.74
2022-10-02T23:00:13.709Z,9.78
2022-10-02T23:05:28.867Z,9.82
2022-10-02T23:10:46.449Z,9.87
2022-10-02T23:16:13.099Z,9.90
2022-10-02T23:21:19.431Z,9.92
2022-10-02T23:26:30.521Z,9.91
2022-10-02T23:31:42.379Z,9.89
2022-10-02T23:37:38.790Z,9.89
2022-10-02T23:42:54.910Z,9.86
2022-10-02T23:48:13.892Z,9.87
2022-10-02T23:53:29.563Z,9.86
2022-10-02T23:59:03.152Z,9.87
